Time;durP1;ratioP1;P1;durP2;ratioP2;P2;SDS_P1;SDS_P2;PMS_P1;PMS_P2;Temp;Humidity;BMP_temperature;BMP_pressure;BME280_temperature;BME280_humidity;BME280_pressure;Samples;Min_cycle;Max_cycle;Signal;HPM_P1;HPM_P2
2023/06/10 00:00:15;;;;;;;4.15;3.03;;;16.60;1.00;;;;;;4987246;28;20192;-75
2023/06/10 00:02:41;;;;;;;4.95;3.10;;;16.60;1.00;;;;;;4988363;28;20717;-74
2023/06/10 00:05:08;;;;;;;4.60;3.25;;;16.50;1.00;;;;;;4985972;28;20742;-75
2023/06/10 00:07:37;;;;;;;5.20;3.38;;;16.50;1.00;;;;;;4987177;28;20207;-75
2023/06/10 00:10:05;;;;;;;4.47;3.20;;;17.00;1.00;;;;;;4988577;28;20184;-75
2023/06/10 00:12:34;;;;;;;5.85;3.50;;;16.40;1.00;;;;;;4986985;28;20312;-75
2023/06/10 00:15:00;;;;;;;3.45;3.10;;;16.40;1.00;;;;;;4987666;28;20180;-75
2023/06/10 00:17:28;;;;;;;6.13;3.15;;;16.30;1.00;;;;;;4987015;28;20200;-76
2023/06/10 00:19:55;;;;;;;5.32;3.25;;;16.20;1.00;;;;;;4988614;28;20222;-75
2023/06/10 00:22:22;;;;;;;4.35;3.05;;;16.60;1.00;;;;;;4987720;28;20261;-75
2023/06/10 00:24:47;;;;;;;5.40;3.15;;;16.10;1.00;;;;;;4988211;28;20176;-75
2023/06/10 00:27:13;;;;;;;5.10;3.20;;;16.10;1.00;;;;;;4986802;28;20561;-74
2023/06/10 00:29:39;;;;;;;5.10;3.30;;;16.00;1.00;;;;;;4988124;28;20560;-75
2023/06/10 00:32:05;;;;;;;3.53;3.13;;;16.80;1.00;;;;;;4987540;28;20581;-75
2023/06/10 00:34:32;;;;;;;4.60;3.50;;;16.00;1.00;;;;;;4987954;28;20180;-76
2023/06/10 00:36:57;;;;;;;6.07;3.40;;;15.90;1.00;;;;;;4986541;28;20187;-76
2023/06/10 00:39:23;;;;;;;4.97;3.42;;;16.00;1.00;;;;;;4988012;28;20180;-75
2023/06/10 00:41:49;;;;;;;6.40;3.67;;;16.10;1.00;;;;;;4987296;28;21255;-75
2023/06/10 00:44:16;;;;;;;4.30;3.33;;;15.90;1.00;;;;;;4987485;28;20184;-75
2023/06/10 00:46:42;;;;;;;4.68;3.13;;;15.80;1.00;;;;;;4987207;28;20678;-74
2023/06/10 00:49:08;;;;;;;3.85;3.25;;;15.80;1.00;;;;;;4987008;28;20581;-74
2023/06/10 00:51:34;;;;;;;5.20;3.67;;;15.60;1.00;;;;;;4987232;28;20258;-75
2023/06/10 00:54:00;;;;;;;5.70;3.45;;;16.00;1.00;;;;;;4987295;28;20180;-74
2023/06/10 00:56:28;;;;;;;4.22;3.60;;;16.10;1.00;;;;;;4987224;28;20182;-75
2023/06/10 00:58:53;;;;;;;4.05;3.40;;;15.50;1.00;;;;;;4986541;28;20192;-74
2023/06/10 01:01:19;;;;;;;4.82;3.42;;;15.40;1.00;;;;;;4987162;28;20223;-76
2023/06/10 01:03:45;;;;;;;4.70;3.03;;;15.50;1.00;;;;;;4987095;28;20194;-74
2023/06/10 01:06:47;;;;;;;4.93;3.15;;;15.40;1.00;;;;;;4985936;28;20203;-75
2023/06/10 01:09:30;;;;;;;4.35;3.10;;;15.60;1.00;;;;;;4986287;28;20183;-75
2023/06/10 01:12:08;;;;;;;8.30;3.70;;;15.50;1.00;;;;;;4986762;28;20215;-74
2023/06/10 01:14:36;;;;;;;4.75;3.83;;;15.30;1.00;;;;;;4986743;28;20180;-75
2023/06/10 01:17:03;;;;;;;4.82;3.70;;;15.10;1.00;;;;;;4984368;28;20192;-75
2023/06/10 01:19:30;;;;;;;5.38;3.20;;;15.00;1.00;;;;;;4986755;28;20543;-75
2023/06/10 01:22:00;;;;;;;4.88;3.53;;;15.20;1.00;;;;;;4986541;28;20287;-75
2023/06/10 01:24:27;;;;;;;4.65;3.40;;;15.00;1.00;;;;;;4987129;28;20267;-74
2023/06/10 01:26:56;;;;;;;5.45;3.75;;;15.00;1.00;;;;;;4985672;28;20180;-73
2023/06/10 01:29:33;;;;;;;4.93;3.53;;;14.70;1.00;;;;;;4986384;28;20192;-73
2023/06/10 01:32:07;;;;;;;6.40;3.75;;;14.90;1.00;;;;;;4985925;28;20242;-74
2023/06/10 01:34:34;;;;;;;6.75;3.88;;;14.80;1.00;;;;;;4986757;28;20191;-74
2023/06/10 01:37:00;;;;;;;5.80;3.88;;;15.30;1.00;;;;;;4985043;28;20214;-75
2023/06/10 01:39:27;;;;;;;6.70;3.83;;;14.90;1.00;;;;;;4986259;28;20215;-75
2023/06/10 01:41:53;;;;;;;6.20;3.55;;;14.80;1.00;;;;;;4986331;28;20198;-76
2023/06/10 01:44:20;;;;;;;4.75;3.83;;;14.90;1.00;;;;;;4985993;28;20307;-76
2023/06/10 01:46:46;;;;;;;5.75;3.58;;;16.30;1.00;;;;;;4985993;28;20220;-76
2023/06/10 01:49:12;;;;;;;4.55;3.47;;;14.80;1.00;;;;;;4985560;28;20581;-75
2023/06/10 01:51:38;;;;;;;5.13;3.42;;;14.80;1.00;;;;;;4986087;28;20215;-74
2023/06/10 01:54:04;;;;;;;8.45;4.32;;;14.70;1.00;;;;;;4985561;28;20192;-76
2023/06/10 01:56:29;;;;;;;6.43;3.78;;;14.80;1.00;;;;;;4985858;28;20188;-76
2023/06/10 01:58:58;;;;;;;4.65;4.03;;;14.80;1.00;;;;;;4985154;28;20547;-75
2023/06/10 02:01:25;;;;;;;6.18;3.78;;;15.30;1.00;;;;;;4985916;28;20671;-75
2023/06/10 02:03:50;;;;;;;5.50;3.55;;;14.70;1.00;;;;;;4985784;28;20703;-74
2023/06/10 02:06:16;;;;;;;4.75;3.38;;;15.40;1.00;;;;;;4986176;28;20279;-74
2023/06/10 02:08:43;;;;;;;5.03;3.50;;;14.60;1.00;;;;;;4985114;28;20671;-75
2023/06/10 02:11:08;;;;;;;4.65;3.47;;;14.70;1.00;;;;;;4985734;28;20235;-75
2023/06/10 02:13:34;;;;;;;6.65;4.20;;;14.70;1.00;;;;;;4985442;28;20184;-74
2023/06/10 02:16:00;;;;;;;5.45;3.90;;;14.90;1.00;;;;;;4985773;28;20623;-75
2023/06/10 02:18:27;;;;;;;4.32;3.92;;;14.70;1.00;;;;;;4985020;28;20199;-74
2023/06/10 02:20:54;;;;;;;7.68;4.53;;;14.70;1.00;;;;;;4985404;28;20176;-75
2023/06/10 02:23:19;;;;;;;5.68;4.10;;;14.60;1.00;;;;;;4985547;28;20187;-75
2023/06/10 02:25:47;;;;;;;4.28;3.65;;;14.60;1.00;;;;;;4985380;28;20195;-74
2023/06/10 02:28:13;;;;;;;6.38;4.05;;;14.40;1.00;;;;;;4984693;28;20235;-74
2023/06/10 02:30:42;;;;;;;5.68;4.28;;;14.30;7.00;;;;;;4985834;28;20220;-74
2023/06/10 02:33:11;;;;;;;7.45;4.10;;;14.30;58.60;;;;;;4985139;28;20203;-74
2023/06/10 02:35:38;;;;;;;5.13;4.10;;;14.30;25.90;;;;;;4985062;28;20191;-75
2023/06/10 02:38:03;;;;;;;5.35;4.53;;;14.30;11.40;;;;;;4984697;28;20208;-75
2023/06/10 02:40:29;;;;;;;5.10;4.07;;;14.20;21.90;;;;;;4985441;28;20514;-75
2023/06/10 02:42:55;;;;;;;5.05;3.83;;;14.70;18.70;;;;;;4985326;28;20220;-75
2023/06/10 02:45:20;;;;;;;6.55;4.57;;;14.10;27.80;;;;;;4985723;28;20544;-75
2023/06/10 02:47:46;;;;;;;5.15;3.60;;;14.10;21.40;;;;;;4984178;28;20298;-76
2023/06/10 02:50:12;;;;;;;6.13;3.70;;;14.00;1.00;;;;;;4985635;28;20604;-74
2023/06/10 02:52:37;;;;;;;4.50;4.10;;;14.30;1.00;;;;;;4984810;28;20211;-75
2023/06/10 02:55:03;;;;;;;4.65;3.58;;;14.20;1.00;;;;;;4985635;28;20180;-75
2023/06/10 02:57:29;;;;;;;4.68;3.85;;;13.80;1.00;;;;;;4984096;28;20188;-76
2023/06/10 02:59:55;;;;;;;5.25;3.90;;;15.00;1.00;;;;;;4985795;28;20548;-74
2023/06/10 03:02:20;;;;;;;5.93;4.38;;;13.90;1.00;;;;;;4984904;28;20339;-75
2023/06/10 03:04:46;;;;;;;4.38;3.55;;;14.10;1.00;;;;;;4985833;28;20188;-75
2023/06/10 03:07:12;;;;;;;4.15;3.75;;;14.40;1.00;;;;;;4984340;28;20211;-74
2023/06/10 03:09:38;;;;;;;5.30;3.60;;;14.30;1.00;;;;;;4986081;28;20181;-75
2023/06/10 03:12:04;;;;;;;7.50;4.10;;;14.00;4.20;;;;;;4984877;28;20216;-74
2023/06/10 03:14:30;;;;;;;4.38;3.97;;;14.20;1.00;;;;;;4985488;28;20719;-75
2023/06/10 03:16:56;;;;;;;7.82;4.90;;;14.60;6.20;;;;;;4985285;28;20184;-75
2023/06/10 03:19:23;;;;;;;5.82;4.28;;;14.20;1.00;;;;;;4984722;28;20180;-74
2023/06/10 03:21:57;;;;;;;5.93;4.03;;;14.30;61.80;;;;;;4985805;28;20186;-76
2023/06/10 03:24:23;;;;;;;9.90;5.15;;;13.80;94.10;;;;;;4985174;28;20250;-76
2023/06/10 03:26:49;;;;;;;6.97;4.65;;;14.00;97.30;;;;;;4985150;28;20621;-75
2023/06/10 03:29:15;;;;;;;6.00;4.80;;;13.90;78.60;;;;;;4984740;28;20192;-75
2023/06/10 03:31:40;;;;;;;6.60;4.30;;;13.90;85.80;;;;;;4984833;28;20222;-74
2023/06/10 03:34:06;;;;;;;5.18;4.22;;;14.10;58.30;;;;;;4985134;28;20184;-75
2023/06/10 03:36:31;;;;;;;6.70;4.82;;;14.00;38.60;;;;;;4984727;28;20191;-76
2023/06/10 03:38:57;;;;;;;6.38;4.43;;;14.00;54.40;;;;;;4983186;28;20293;-76
2023/06/10 03:41:22;;;;;;;6.07;4.57;;;14.00;19.50;;;;;;4985015;28;20192;-76
2023/06/10 03:43:48;;;;;;;7.07;4.25;;;14.20;22.10;;;;;;4984934;28;20192;-75
2023/06/10 03:46:14;;;;;;;7.25;4.90;;;14.20;23.50;;;;;;4985092;28;20583;-75
2023/06/10 03:48:42;;;;;;;5.70;4.50;;;14.30;16.80;;;;;;4987883;28;20210;-76
2023/06/10 03:51:08;;;;;;;7.93;4.60;;;14.30;12.80;;;;;;4988513;28;20185;-76
2023/06/10 03:53:33;;;;;;;7.70;4.80;;;14.40;19.60;;;;;;4988142;28;20190;-75
2023/06/10 03:55:59;;;;;;;7.10;4.88;;;14.50;25.80;;;;;;4988587;28;20258;-75
2023/06/10 03:58:25;;;;;;;6.40;4.65;;;14.40;59.70;;;;;;4987383;28;20569;-74
2023/06/10 04:00:51;;;;;;;7.75;5.85;;;14.30;89.20;;;;;;4988572;28;20199;-76
2023/06/10 04:03:16;;;;;;;7.65;5.30;;;14.30;99.90;;;;;;4988041;28;20693;-76
2023/06/10 04:05:42;;;;;;;7.38;5.20;;;14.20;99.90;;;;;;4988493;28;20188;-75
2023/06/10 04:08:08;;;;;;;7.70;4.90;;;14.60;99.90;;;;;;4987238;28;20208;-75
2023/06/10 04:10:34;;;;;;;8.57;4.78;;;14.30;39.20;;;;;;4988362;28;20196;-75
2023/06/10 04:12:59;;;;;;;5.72;4.55;;;14.40;26.10;;;;;;4987962;28;20667;-75
2023/06/10 04:15:25;;;;;;;7.10;4.07;;;14.50;12.00;;;;;;4988725;28;20192;-75
2023/06/10 04:17:51;;;;;;;7.10;5.20;;;14.60;1.00;;;;;;4987520;28;20283;-76
2023/06/10 04:20:16;;;;;;;5.18;4.22;;;14.60;1.00;;;;;;4987788;28;20940;-75
2023/06/10 04:22:42;;;;;;;6.53;5.03;;;15.00;1.00;;;;;;4987687;28;20184;-76
2023/06/10 04:25:09;;;;;;;6.85;5.00;;;14.70;1.00;;;;;;4988118;28;20242;-74
2023/06/10 04:27:35;;;;;;;6.47;4.95;;;14.80;13.10;;;;;;4987108;28;20214;-75
2023/06/10 04:30:01;;;;;;;5.88;4.68;;;14.90;1.00;;;;;;4988334;28;20196;-75
2023/06/10 04:32:27;;;;;;;6.85;5.38;;;14.90;1.00;;;;;;4987433;28;21181;-76
2023/06/10 04:34:52;;;;;;;9.30;5.22;;;15.10;1.00;;;;;;4988234;28;20191;-75
2023/06/10 04:37:18;;;;;;;5.82;4.57;;;15.20;1.00;;;;;;4986724;28;20200;-75
2023/06/10 04:39:43;;;;;;;5.65;4.85;;;15.30;1.00;;;;;;4988412;28;20236;-74
2023/06/10 04:42:09;;;;;;;6.88;5.25;;;15.30;1.00;;;;;;4987112;28;20189;-75
2023/06/10 04:44:35;;;;;;;5.72;3.97;;;15.70;1.00;;;;;;4988036;28;20211;-74
2023/06/10 04:47:00;;;;;;;6.32;4.40;;;15.50;1.00;;;;;;4986968;28;20220;-75
2023/06/10 04:49:26;;;;;;;8.68;5.70;;;15.60;1.00;;;;;;4987081;28;20259;-75
2023/06/10 04:51:52;;;;;;;7.95;5.10;;;15.70;1.00;;;;;;4987304;28;20270;-75
2023/06/10 04:54:17;;;;;;;6.63;5.22;;;15.70;1.00;;;;;;4987555;28;20243;-75
2023/06/10 04:56:43;;;;;;;7.10;5.00;;;16.00;1.00;;;;;;4987143;28;20224;-75
2023/06/10 04:59:08;;;;;;;4.72;4.10;;;16.90;1.00;;;;;;4986540;28;20188;-75
2023/06/10 05:01:34;;;;;;;6.00;4.50;;;18.40;1.00;;;;;;4986984;28;20669;-75
2023/06/10 05:04:00;;;;;;;5.45;3.85;;;19.70;1.00;;;;;;4987452;28;20188;-74
2023/06/10 05:06:25;;;;;;;6.10;4.20;;;20.60;1.00;;;;;;4987397;28;20187;-74
2023/06/10 05:08:51;;;;;;;7.20;4.45;;;21.30;1.00;;;;;;4986797;28;20208;-75
2023/06/10 05:11:16;;;;;;;4.88;4.28;;;21.50;1.00;;;;;;4987039;28;20200;-77
2023/06/10 05:13:43;;;;;;;6.03;4.40;;;22.10;1.00;;;;;;4986782;28;20192;-74
2023/06/10 05:16:09;;;;;;;7.28;4.30;;;22.70;1.00;;;;;;4986886;28;20172;-74
2023/06/10 05:18:35;;;;;;;5.25;3.88;;;23.10;1.00;;;;;;4986261;28;20210;-75
2023/06/10 05:21:02;;;;;;;7.07;4.00;;;23.40;1.00;;;;;;4986804;28;20239;-75
2023/06/10 05:23:28;;;;;;;5.28;3.83;;;24.00;1.00;;;;;;4986753;28;20271;-74
2023/06/10 05:25:54;;;;;;;5.85;4.40;;;24.50;1.00;;;;;;4985073;28;20803;-75
2023/06/10 05:28:20;;;;;;;5.93;4.25;;;24.70;1.00;;;;;;4985877;28;20208;-75
2023/06/10 05:30:46;;;;;;;6.47;3.75;;;25.10;1.00;;;;;;4987063;28;20188;-76
2023/06/10 05:33:11;;;;;;;4.82;4.30;;;25.10;1.00;;;;;;4986192;28;20354;-76
2023/06/10 05:35:37;;;;;;;5.50;3.70;;;24.50;1.00;;;;;;4986553;28;20191;-75
2023/06/10 05:38:02;;;;;;;6.63;4.28;;;25.30;1.00;;;;;;4985458;28;20858;-74
2023/06/10 05:40:28;;;;;;;8.32;3.90;;;25.80;1.00;;;;;;4985971;28;20180;-74
2023/06/10 05:42:54;;;;;;;5.78;4.40;;;26.40;1.00;;;;;;4985861;28;20180;-74
2023/06/10 05:45:19;;;;;;;5.28;3.97;;;26.60;1.00;;;;;;4985025;28;20180;-73
2023/06/10 05:47:45;;;;;;;6.88;4.88;;;26.60;1.00;;;;;;4985167;28;20208;-73
2023/06/10 05:50:10;;;;;;;5.60;4.20;;;27.00;1.00;;;;;;4986373;28;20188;-74
2023/06/10 05:52:36;;;;;;;6.53;4.70;;;27.10;1.00;;;;;;4985687;28;20204;-74
2023/06/10 05:55:03;;;;;;;4.28;3.88;;;27.40;1.00;;;;;;4986385;28;20177;-73
2023/06/10 05:57:29;;;;;;;6.53;4.75;;;27.80;1.00;;;;;;4984704;28;20250;-74
2023/06/10 05:59:54;;;;;;;4.53;4.10;;;27.90;1.00;;;;;;4986137;28;20270;-74
2023/06/10 06:02:20;;;;;;;6.53;3.95;;;27.70;1.00;;;;;;4985430;28;20196;-75
2023/06/10 06:04:46;;;;;;;5.85;4.60;;;27.50;1.00;;;;;;4986166;28;20285;-74
2023/06/10 06:07:11;;;;;;;5.25;4.50;;;27.50;1.00;;;;;;4985453;28;20759;-75
2023/06/10 06:09:37;;;;;;;7.75;4.65;;;27.70;1.00;;;;;;4984847;28;20180;-74
2023/06/10 06:12:03;;;;;;;4.63;3.95;;;28.10;1.00;;;;;;4984382;28;20203;-75
2023/06/10 06:14:32;;;;;;;5.32;4.53;;;28.20;1.00;;;;;;4985599;28;20687;-75
2023/06/10 06:16:57;;;;;;;5.63;4.60;;;28.90;1.00;;;;;;4985388;28;20192;-75
2023/06/10 06:19:23;;;;;;;5.72;4.28;;;29.00;1.00;;;;;;4984918;28;20185;-74
2023/06/10 06:21:49;;;;;;;5.97;4.88;;;29.20;1.00;;;;;;4986100;28;20214;-76
2023/06/10 06:24:16;;;;;;;6.88;4.55;;;29.00;1.00;;;;;;4985652;28;20543;-74
2023/06/10 06:26:41;;;;;;;4.93;4.38;;;29.40;1.00;;;;;;4985628;28;20191;-73
2023/06/10 06:29:07;;;;;;;5.88;4.55;;;29.70;1.00;;;;;;4985056;28;20184;-73
2023/06/10 06:31:33;;;;;;;5.75;4.07;;;29.90;1.00;;;;;;4985820;28;20235;-74
2023/06/10 06:33:58;;;;;;;4.85;4.32;;;30.00;1.00;;;;;;4985855;28;20224;-75
2023/06/10 06:36:24;;;;;;;5.07;4.38;;;30.10;1.00;;;;;;4985949;28;20206;-75
2023/06/10 06:38:49;;;;;;;5.40;4.63;;;29.60;1.00;;;;;;4984845;28;20200;-74
2023/06/10 06:41:15;;;;;;;5.55;4.45;;;30.10;1.00;;;;;;4985969;28;20176;-74
2023/06/10 06:43:42;;;;;;;5.60;4.57;;;29.80;1.00;;;;;;4985334;28;20184;-75
2023/06/10 06:46:08;;;;;;;5.22;4.40;;;29.70;1.00;;;;;;4985746;28;20195;-74
2023/06/10 06:48:34;;;;;;;5.65;4.03;;;30.00;1.00;;;;;;4984479;28;20207;-74
2023/06/10 06:50:59;;;;;;;6.05;4.50;;;30.20;1.00;;;;;;4985985;28;20191;-74
2023/06/10 06:53:25;;;;;;;7.82;5.53;;;30.60;1.00;;;;;;4985216;28;20222;-74
2023/06/10 06:55:51;;;;;;;5.07;4.57;;;31.00;1.00;;;;;;4986079;28;20176;-75
2023/06/10 06:58:16;;;;;;;6.18;5.13;;;30.20;1.00;;;;;;4983154;28;20227;-74
2023/06/10 07:00:42;;;;;;;5.22;4.53;;;30.00;1.00;;;;;;4984791;28;20215;-74
2023/06/10 07:03:08;;;;;;;8.55;5.65;;;30.30;1.00;;;;;;4983268;28;20185;-75
2023/06/10 07:05:33;;;;;;;4.97;4.10;;;30.50;1.00;;;;;;4985755;28;20264;-74
2023/06/10 07:07:59;;;;;;;5.45;4.95;;;31.00;1.00;;;;;;4984532;28;20204;-74
2023/06/10 07:10:25;;;;;;;5.15;4.53;;;31.80;1.00;;;;;;4985568;28;20679;-74
2023/06/10 07:12:52;;;;;;;5.78;4.63;;;31.60;1.00;;;;;;4985635;28;20219;-74
2023/06/10 07:15:17;;;;;;;5.10;4.60;;;30.60;1.00;;;;;;4985349;28;20258;-74
2023/06/10 07:17:43;;;;;;;5.70;5.20;;;31.20;1.00;;;;;;4984887;28;20727;-73
2023/06/10 07:20:09;;;;;;;6.07;5.38;;;31.30;1.00;;;;;;4985286;28;20168;-75
2023/06/10 07:22:35;;;;;;;5.53;5.03;;;30.50;1.00;;;;;;4988992;28;20207;-74
2023/06/10 07:25:00;;;;;;;5.80;4.78;;;29.80;1.00;;;;;;4989144;28;20663;-73
2023/06/10 07:27:26;;;;;;;6.15;4.90;;;30.00;1.00;;;;;;4988704;28;20744;-74
2023/06/10 07:29:52;;;;;;;6.50;5.00;;;29.10;1.00;;;;;;4989049;28;20189;-74
2023/06/10 07:32:20;;;;;;;4.97;4.57;;;27.20;1.00;;;;;;4988721;28;20208;-73
2023/06/10 07:34:45;;;;;;;6.10;5.43;;;25.40;1.00;;;;;;4989449;28;20215;-74
2023/06/10 07:37:11;;;;;;;5.68;4.88;;;24.30;1.00;;;;;;4988714;28;20216;-74
2023/06/10 07:39:36;;;;;;;7.50;5.10;;;23.70;1.00;;;;;;4988084;28;20184;-74
2023/06/10 07:42:02;;;;;;;5.93;5.30;;;23.30;1.00;;;;;;4987365;28;20221;-74
2023/06/10 07:44:28;;;;;;;7.72;5.80;;;23.00;1.00;;;;;;4988245;28;20184;-73
2023/06/10 07:46:53;;;;;;;5.50;4.93;;;22.40;1.00;;;;;;4988091;28;20271;-74
2023/06/10 07:49:19;;;;;;;6.60;5.47;;;22.10;1.00;;;;;;4987503;28;20199;-77
2023/06/10 07:51:44;;;;;;;7.43;5.63;;;21.70;1.00;;;;;;4988900;28;20199;-75
2023/06/10 07:54:12;;;;;;;6.55;5.35;;;21.30;1.00;;;;;;4988239;28;20601;-75
2023/06/10 07:56:38;;;;;;;7.03;5.38;;;21.30;1.00;;;;;;4989135;28;20176;-74
2023/06/10 07:59:03;;;;;;;6.07;5.43;;;21.30;1.00;;;;;;4988141;28;20211;-75
2023/06/10 08:01:30;;;;;;;7.95;5.82;;;21.00;1.00;;;;;;4988514;28;20207;-75
2023/06/10 08:03:55;;;;;;;7.32;5.72;;;21.10;1.00;;;;;;4988078;28;20251;-74
2023/06/10 08:06:21;;;;;;;7.47;5.65;;;20.70;1.00;;;;;;4987034;28;20644;-75
2023/06/10 08:08:46;;;;;;;8.05;6.13;;;20.60;1.00;;;;;;4986077;28;20294;-74
2023/06/10 08:11:13;;;;;;;7.00;5.90;;;20.80;1.00;;;;;;4988350;28;20647;-73
2023/06/10 08:13:39;;;;;;;8.02;6.00;;;21.00;1.00;;;;;;4988515;28;20362;-74
2023/06/10 08:16:05;;;;;;;6.88;5.60;;;21.10;1.00;;;;;;4987678;28;20667;-74
2023/06/10 08:18:31;;;;;;;7.38;5.50;;;21.10;1.00;;;;;;4987503;28;20350;-74
2023/06/10 08:20:56;;;;;;;5.65;5.15;;;21.20;1.00;;;;;;4988021;28;20180;-74
2023/06/10 08:23:22;;;;;;;6.97;5.20;;;21.10;1.00;;;;;;4988207;28;20561;-74
2023/06/10 08:25:48;;;;;;;8.25;5.63;;;21.30;1.00;;;;;;4989082;28;20306;-75
2023/06/10 08:28:13;;;;;;;6.80;5.30;;;21.50;1.00;;;;;;4987286;28;20302;-74
2023/06/10 08:30:39;;;;;;;7.38;5.75;;;21.20;1.00;;;;;;4988659;28;20184;-74
2023/06/10 08:33:05;;;;;;;7.90;5.47;;;21.30;1.00;;;;;;4986840;28;20207;-75
2023/06/10 08:35:30;;;;;;;6.18;5.57;;;21.50;1.00;;;;;;4987840;28;20172;-74
2023/06/10 08:37:56;;;;;;;6.82;5.53;;;21.40;1.00;;;;;;4985865;28;20235;-74
2023/06/10 08:40:22;;;;;;;7.75;5.97;;;21.60;1.00;;;;;;4987001;28;20655;-74
2023/06/10 08:43:06;;;;;;;8.20;5.80;;;21.30;1.00;;;;;;4985628;28;20226;-74
2023/06/10 08:45:35;;;;;;;7.68;6.10;;;21.40;1.00;;;;;;4987158;28;20184;-73
2023/06/10 08:48:09;;;;;;;8.27;6.25;;;21.40;1.00;;;;;;4986132;28;20574;-74
2023/06/10 08:50:37;;;;;;;10.02;6.82;;;21.40;1.00;;;;;;4986678;28;20180;-74
2023/06/10 08:53:05;;;;;;;8.55;6.07;;;21.20;1.00;;;;;;4986718;28;20200;-74
2023/06/10 08:55:32;;;;;;;6.80;5.72;;;21.20;1.00;;;;;;4987686;28;20648;-75
2023/06/10 08:58:00;;;;;;;6.55;5.85;;;21.30;1.00;;;;;;4985925;28;20200;-74
2023/06/10 09:00:26;;;;;;;6.38;5.78;;;21.50;1.00;;;;;;4988342;28;20176;-76
2023/06/10 09:02:52;;;;;;;7.45;6.07;;;21.50;1.00;;;;;;4989210;28;20185;-76
2023/06/10 09:05:18;;;;;;;7.97;6.35;;;21.50;1.00;;;;;;4988072;28;20670;-74
2023/06/10 09:07:45;;;;;;;6.20;5.60;;;21.50;1.00;;;;;;4987085;28;20298;-75
2023/06/10 09:10:11;;;;;;;6.32;5.60;;;21.60;1.00;;;;;;4987789;28;20188;-73
2023/06/10 09:12:40;;;;;;;7.75;6.43;;;21.70;1.00;;;;;;4987072;28;20322;-74
2023/06/10 09:15:07;;;;;;;8.35;6.30;;;21.80;1.00;;;;;;4987397;28;20188;-74
2023/06/10 09:17:33;;;;;;;8.45;6.95;;;21.90;1.00;;;;;;4987190;28;20196;-75
2023/06/10 09:20:02;;;;;;;9.00;6.90;;;21.70;1.00;;;;;;4986779;28;20176;-73
2023/06/10 09:22:28;;;;;;;8.05;6.53;;;21.50;1.00;;;;;;4987018;28;20243;-75
2023/06/10 09:25:05;;;;;;;8.57;6.65;;;21.60;1.00;;;;;;4987176;28;20180;-75
2023/06/10 09:27:32;;;;;;;7.07;6.38;;;21.90;1.00;;;;;;4986388;28;20203;-74
2023/06/10 09:29:58;;;;;;;9.38;6.60;;;22.00;1.00;;;;;;4986573;28;20590;-74
2023/06/10 09:32:24;;;;;;;9.15;7.63;;;21.90;1.00;;;;;;4987094;28;20219;-74
2023/06/10 09:34:50;;;;;;;8.02;7.07;;;21.70;1.00;;;;;;4986727;28;20188;-74
2023/06/10 09:37:23;;;;;;;9.35;7.38;;;21.70;1.00;;;;;;4986584;28;20200;-73
2023/06/10 09:40:04;;;;;;;8.90;7.15;;;21.70;1.00;;;;;;4985328;28;20183;-73
2023/06/10 09:42:34;;;;;;;8.95;6.55;;;21.80;1.00;;;;;;4986443;28;20201;-73
2023/06/10 09:45:00;;;;;;;8.57;7.00;;;21.70;1.00;;;;;;4985689;28;20242;-73
2023/06/10 09:47:25;;;;;;;9.88;7.45;;;21.90;1.00;;;;;;4984754;28;20211;-73
2023/06/10 09:49:54;;;;;;;10.52;7.60;;;22.10;1.00;;;;;;4985188;28;20200;-72
2023/06/10 09:52:23;;;;;;;8.70;7.25;;;22.40;1.00;;;;;;4984250;28;20208;-73
2023/06/10 09:54:51;;;;;;;8.55;6.97;;;22.70;1.00;;;;;;4984674;28;20214;-73
2023/06/10 09:57:17;;;;;;;8.27;7.20;;;22.80;1.00;;;;;;4984613;28;20203;-73
2023/06/10 09:59:45;;;;;;;8.30;7.30;;;22.90;1.00;;;;;;4984327;28;20192;-73
2023/06/10 10:02:20;;;;;;;7.93;6.70;;;23.00;1.00;;;;;;4984865;28;20192;-73
2023/06/10 10:04:45;;;;;;;9.23;7.38;;;23.20;1.00;;;;;;4984831;28;20219;-73
2023/06/10 10:07:12;;;;;;;7.82;6.95;;;23.20;1.00;;;;;;4985770;28;20765;-74
2023/06/10 10:09:39;;;;;;;8.65;6.60;;;23.30;1.00;;;;;;4984441;28;20196;-72
2023/06/10 10:12:14;;;;;;;8.98;6.57;;;23.40;1.00;;;;;;4984569;28;20687;-73
2023/06/10 10:14:46;;;;;;;7.63;6.45;;;23.40;1.00;;;;;;4984959;28;20301;-73
2023/06/10 10:17:14;;;;;;;7.40;6.70;;;23.20;1.00;;;;;;4985162;28;20815;-73
2023/06/10 10:19:47;;;;;;;7.28;6.55;;;23.30;1.00;;;;;;4984501;28;20192;-73
2023/06/10 10:22:26;;;;;;;7.97;6.88;;;23.60;1.00;;;;;;4985371;28;20184;-73
2023/06/10 10:24:55;;;;;;;7.57;6.60;;;23.60;1.00;;;;;;4985097;28;20188;-73
2023/06/10 10:27:27;;;;;;;7.68;6.63;;;23.60;1.00;;;;;;4984131;28;20208;-73
2023/06/10 10:29:54;;;;;;;7.60;6.53;;;23.90;1.00;;;;;;4984787;28;20180;-73
2023/06/10 10:32:34;;;;;;;7.25;6.55;;;23.90;1.00;;;;;;4984999;28;20757;-73
2023/06/10 10:35:00;;;;;;;8.25;6.57;;;24.10;1.00;;;;;;4984661;28;20258;-73
2023/06/10 10:37:26;;;;;;;7.97;6.40;;;24.30;1.00;;;;;;4984571;28;20551;-73
2023/06/10 10:39:52;;;;;;;8.15;6.80;;;24.30;1.00;;;;;;4984947;28;20272;-73
2023/06/10 10:42:19;;;;;;;7.40;6.70;;;24.70;1.00;;;;;;4984667;28;20656;-73
2023/06/10 10:44:44;;;;;;;8.85;6.32;;;24.90;1.00;;;;;;4986083;28;20246;-73
2023/06/10 10:47:11;;;;;;;9.43;6.28;;;24.90;1.00;;;;;;4984332;28;20294;-73
2023/06/10 10:49:38;;;;;;;6.88;6.25;;;25.10;1.00;;;;;;4984315;28;20184;-73
2023/06/10 10:52:06;;;;;;;7.47;6.78;;;25.20;1.00;;;;;;4984712;28;20199;-73
2023/06/10 10:54:37;;;;;;;7.55;6.43;;;25.10;1.00;;;;;;4984652;28;20640;-73
2023/06/10 10:57:09;;;;;;;8.00;6.43;;;25.30;1.00;;;;;;4987651;28;20610;-73
2023/06/10 10:59:59;;;;;;;6.38;5.72;;;25.40;1.00;;;;;;4986342;28;20534;-75
2023/06/10 11:02:40;;;;;;;7.00;6.40;;;25.50;1.00;;;;;;4989063;28;20200;-74
2023/06/10 11:05:06;;;;;;;7.00;6.25;;;25.70;1.00;;;;;;4988598;28;20184;-72
2023/06/10 11:07:33;;;;;;;8.40;6.00;;;25.50;1.00;;;;;;4988854;28;20208;-73
2023/06/10 11:10:14;;;;;;;7.70;6.53;;;25.50;1.00;;;;;;4987945;28;20231;-72
2023/06/10 11:12:58;;;;;;;6.97;6.25;;;25.70;1.00;;;;;;4988986;28;20204;-73
2023/06/10 11:15:29;;;;;;;7.57;6.75;;;25.70;1.00;;;;;;4988791;28;20413;-74
2023/06/10 11:18:12;;;;;;;8.20;6.20;;;25.80;1.00;;;;;;4988038;28;20203;-74
2023/06/10 11:20:45;;;;;;;7.32;6.45;;;25.70;1.00;;;;;;4988578;28;20180;-74
2023/06/10 11:23:24;;;;;;;7.45;6.72;;;25.70;1.00;;;;;;4988847;28;20250;-75
2023/06/10 11:25:49;;;;;;;6.55;5.97;;;25.70;1.00;;;;;;5003447;28;20214;-75
2023/06/10 11:28:19;;;;;;;7.25;5.72;;;25.70;1.00;;;;;;4988589;28;20208;-75
2023/06/10 11:30:45;;;;;;;7.22;6.53;;;26.00;1.00;;;;;;4988439;28;20656;-73
2023/06/10 11:33:16;;;;;;;7.22;6.50;;;26.00;1.00;;;;;;4988219;28;20683;-75
2023/06/10 11:35:43;;;;;;;6.82;6.18;;;25.80;1.00;;;;;;4988233;28;20702;-75
2023/06/10 11:38:09;;;;;;;6.85;6.22;;;25.90;1.00;;;;;;4987223;28;20323;-76
2023/06/10 11:40:37;;;;;;;9.05;6.10;;;25.90;1.00;;;;;;4988389;28;20199;-73
2023/06/10 11:43:04;;;;;;;7.45;6.10;;;25.90;1.00;;;;;;4986934;28;20180;-74
2023/06/10 11:45:29;;;;;;;6.85;5.80;;;26.00;1.00;;;;;;4987969;28;20188;-74
2023/06/10 11:47:59;;;;;;;6.75;6.05;;;26.00;1.00;;;;;;4987425;28;20211;-73
2023/06/10 11:50:32;;;;;;;6.15;5.55;;;26.10;1.00;;;;;;4987883;28;20673;-74
2023/06/10 11:52:58;;;;;;;6.55;5.65;;;26.20;1.00;;;;;;4987512;28;20262;-74
2023/06/10 11:55:26;;;;;;;8.68;6.10;;;26.10;1.00;;;;;;4987864;28;20275;-74
2023/06/10 11:57:57;;;;;;;7.85;5.97;;;26.00;1.00;;;;;;4988361;28;20603;-75
2023/06/10 12:00:24;;;;;;;7.00;5.65;;;26.20;1.00;;;;;;4986997;28;20648;-73
2023/06/10 12:02:57;;;;;;;7.80;6.40;;;26.30;1.00;;;;;;4985941;28;20271;-74
2023/06/10 12:05:23;;;;;;;7.00;5.90;;;26.50;1.00;;;;;;4981034;28;20653;-74
2023/06/10 12:07:49;;;;;;;6.63;6.05;;;26.50;1.00;;;;;;4983285;28;20286;-73
2023/06/10 12:10:15;;;;;;;5.95;5.43;;;26.60;1.00;;;;;;4982220;28;20678;-73
2023/06/10 12:12:41;;;;;;;6.53;5.93;;;26.80;1.00;;;;;;4983384;28;20215;-75
2023/06/10 12:15:08;;;;;;;6.47;5.97;;;26.90;1.00;;;;;;4984267;28;20188;-74
2023/06/10 12:17:34;;;;;;;7.50;6.10;;;26.90;1.00;;;;;;4983420;28;20274;-73
2023/06/10 12:20:01;;;;;;;6.70;5.97;;;26.80;1.00;;;;;;4983009;28;20879;-74
2023/06/10 12:22:27;;;;;;;6.68;6.10;;;27.00;1.00;;;;;;4984685;28;20271;-73
2023/06/10 12:25:04;;;;;;;6.53;5.72;;;27.10;1.00;;;;;;4986896;28;20669;-75
2023/06/10 12:27:31;;;;;;;5.80;5.10;;;27.10;1.00;;;;;;4985936;28;20924;-74
2023/06/10 12:30:02;;;;;;;6.55;5.18;;;27.00;1.00;;;;;;4986935;28;20660;-74
2023/06/10 12:32:38;;;;;;;8.25;5.65;;;27.20;1.00;;;;;;4985629;28;20561;-73
2023/06/10 12:35:05;;;;;;;5.80;5.20;;;27.40;1.00;;;;;;4987555;28;20190;-73
2023/06/10 12:37:33;;;;;;;4.85;4.45;;;27.40;1.00;;;;;;4987045;28;20310;-73
2023/06/10 12:40:01;;;;;;;5.38;4.85;;;27.40;1.00;;;;;;4986735;28;20181;-73
2023/06/10 12:42:26;;;;;;;5.53;5.03;;;27.40;1.00;;;;;;4987716;28;20306;-74
2023/06/10 12:44:56;;;;;;;7.35;5.28;;;27.30;1.00;;;;;;4987812;28;20692;-73
2023/06/10 12:47:32;;;;;;;5.47;4.82;;;27.30;1.00;;;;;;4986718;28;20212;-73
2023/06/10 12:49:58;;;;;;;6.63;5.40;;;27.10;1.00;;;;;;4986447;28;20187;-74
2023/06/10 12:52:25;;;;;;;6.18;5.38;;;27.10;1.00;;;;;;4986734;28;20208;-74
2023/06/10 12:54:51;;;;;;;6.18;5.57;;;27.30;1.00;;;;;;4987145;28;20787;-73